sensor_id;sensor_type;location;lat;lon;timestamp;P1;durP1;ratioP1;P2;durP2;ratioP2
30462;SDS011;17256;43.618;25.336;2023-11-21T00:02:21;3.10;;;2.27;;
30462;SDS011;17256;43.618;25.336;2023-11-21T00:04:47;3.97;;;2.40;;
30462;SDS011;17256;43.618;25.336;2023-11-21T00:07:14;2.73;;;2.00;;
30462;SDS011;17256;43.618;25.336;2023-11-21T00:09:40;2.43;;;2.23;;
30462;SDS011;17256;43.618;25.336;2023-11-21T00:12:06;4.77;;;1.93;;
30462;SDS011;17256;43.618;25.336;2023-11-21T00:14:36;3.50;;;2.17;;
30462;SDS011;17256;43.618;25.336;2023-11-21T00:17:02;3.03;;;2.40;;
30462;SDS011;17256;43.618;25.336;2023-11-21T00:19:28;2.87;;;2.27;;
30462;SDS011;17256;43.618;25.336;2023-11-21T00:21:53;2.50;;;1.70;;
30462;SDS011;17256;43.618;25.336;2023-11-21T00:24:19;3.00;;;2.33;;
30462;SDS011;17256;43.618;25.336;2023-11-21T00:26:44;3.03;;;1.67;;
30462;SDS011;17256;43.618;25.336;2023-11-21T00:29:10;4.40;;;3.27;;
30462;SDS011;17256;43.618;25.336;2023-11-21T00:31:36;2.00;;;1.87;;
30462;SDS011;17256;43.618;25.336;2023-11-21T00:34:02;2.77;;;2.13;;
30462;SDS011;17256;43.618;25.336;2023-11-21T00:36:30;2.47;;;2.00;;
30462;SDS011;17256;43.618;25.336;2023-11-21T00:38:57;2.33;;;2.03;;
30462;SDS011;17256;43.618;25.336;2023-11-21T00:41:23;2.73;;;2.00;;
30462;SDS011;17256;43.618;25.336;2023-11-21T00:43:48;3.83;;;2.30;;
30462;SDS011;17256;43.618;25.336;2023-11-21T00:46:14;2.33;;;1.63;;
30462;SDS011;17256;43.618;25.336;2023-11-21T00:48:40;2.50;;;1.60;;
30462;SDS011;17256;43.618;25.336;2023-11-21T00:51:05;3.40;;;1.50;;
30462;SDS011;17256;43.618;25.336;2023-11-21T00:53:31;3.70;;;2.00;;
30462;SDS011;17256;43.618;25.336;2023-11-21T00:55:57;3.37;;;1.63;;
30462;SDS011;17256;43.618;25.336;2023-11-21T00:58:24;3.17;;;1.90;;
30462;SDS011;17256;43.618;25.336;2023-11-21T01:00:51;2.00;;;1.50;;
30462;SDS011;17256;43.618;25.336;2023-11-21T01:03:17;3.13;;;1.60;;
30462;SDS011;17256;43.618;25.336;2023-11-21T01:05:42;2.37;;;1.83;;
30462;SDS011;17256;43.618;25.336;2023-11-21T01:08:08;1.87;;;1.50;;
30462;SDS011;17256;43.618;25.336;2023-11-21T01:10:34;2.80;;;1.77;;
30462;SDS011;17256;43.618;25.336;2023-11-21T01:12:59;2.83;;;1.60;;
30462;SDS011;17256;43.618;25.336;2023-11-21T01:15:25;1.80;;;1.43;;
30462;SDS011;17256;43.618;25.336;2023-11-21T01:17:51;2.07;;;1.70;;
30462;SDS011;17256;43.618;25.336;2023-11-21T01:20:19;1.70;;;1.50;;
30462;SDS011;17256;43.618;25.336;2023-11-21T01:22:46;3.93;;;2.93;;
30462;SDS011;17256;43.618;25.336;2023-11-21T01:25:14;2.70;;;1.40;;
30462;SDS011;17256;43.618;25.336;2023-11-21T01:27:42;1.80;;;1.50;;
30462;SDS011;17256;43.618;25.336;2023-11-21T01:30:08;2.27;;;1.40;;
30462;SDS011;17256;43.618;25.336;2023-11-21T01:32:37;2.57;;;2.03;;
30462;SDS011;17256;43.618;25.336;2023-11-21T01:35:03;2.33;;;1.50;;
30462;SDS011;17256;43.618;25.336;2023-11-21T01:37:30;1.87;;;1.60;;
30462;SDS011;17256;43.618;25.336;2023-11-21T01:39:56;3.43;;;1.70;;
30462;SDS011;17256;43.618;25.336;2023-11-21T01:42:22;1.60;;;1.40;;
30462;SDS011;17256;43.618;25.336;2023-11-21T01:44:48;1.70;;;1.60;;
30462;SDS011;17256;43.618;25.336;2023-11-21T01:47:14;1.73;;;1.50;;
30462;SDS011;17256;43.618;25.336;2023-11-21T01:49:42;2.53;;;1.47;;
30462;SDS011;17256;43.618;25.336;2023-11-21T01:52:10;1.77;;;1.50;;
30462;SDS011;17256;43.618;25.336;2023-11-21T01:54:37;2.07;;;1.33;;
30462;SDS011;17256;43.618;25.336;2023-11-21T01:57:03;2.23;;;1.53;;
30462;SDS011;17256;43.618;25.336;2023-11-21T01:59:37;2.10;;;1.70;;
30462;SDS011;17256;43.618;25.336;2023-11-21T02:02:04;2.97;;;1.53;;
30462;SDS011;17256;43.618;25.336;2023-11-21T02:04:34;2.13;;;1.40;;
30462;SDS011;17256;43.618;25.336;2023-11-21T02:07:00;7.00;;;1.83;;
30462;SDS011;17256;43.618;25.336;2023-11-21T02:09:26;1.47;;;1.37;;
30462;SDS011;17256;43.618;25.336;2023-11-21T02:11:53;1.63;;;1.30;;
30462;SDS011;17256;43.618;25.336;2023-11-21T02:14:19;2.30;;;1.20;;
30462;SDS011;17256;43.618;25.336;2023-11-21T02:16:48;3.07;;;1.40;;
30462;SDS011;17256;43.618;25.336;2023-11-21T02:19:19;2.87;;;1.97;;
30462;SDS011;17256;43.618;25.336;2023-11-21T02:21:51;4.37;;;1.87;;
30462;SDS011;17256;43.618;25.336;2023-11-21T02:24:22;1.60;;;1.43;;
30462;SDS011;17256;43.618;25.336;2023-11-21T02:26:48;1.20;;;1.10;;
30462;SDS011;17256;43.618;25.336;2023-11-21T02:29:19;1.90;;;1.40;;
30462;SDS011;17256;43.618;25.336;2023-11-21T02:31:53;1.40;;;1.27;;
30462;SDS011;17256;43.618;25.336;2023-11-21T02:34:21;3.43;;;1.70;;
30462;SDS011;17256;43.618;25.336;2023-11-21T02:36:47;3.80;;;1.77;;
30462;SDS011;17256;43.618;25.336;2023-11-21T02:39:16;1.87;;;1.60;;
30462;SDS011;17256;43.618;25.336;2023-11-21T02:41:43;2.90;;;1.37;;
30462;SDS011;17256;43.618;25.336;2023-11-21T02:44:09;4.50;;;1.77;;
30462;SDS011;17256;43.618;25.336;2023-11-21T02:46:35;1.87;;;1.60;;
30462;SDS011;17256;43.618;25.336;2023-11-21T02:49:02;3.07;;;1.33;;
30462;SDS011;17256;43.618;25.336;2023-11-21T02:51:29;2.63;;;1.40;;
30462;SDS011;17256;43.618;25.336;2023-11-21T02:53:55;2.93;;;1.90;;
30462;SDS011;17256;43.618;25.336;2023-11-21T02:56:27;2.83;;;1.20;;
30462;SDS011;17256;43.618;25.336;2023-11-21T02:58:54;4.40;;;1.57;;
30462;SDS011;17256;43.618;25.336;2023-11-21T03:01:20;1.70;;;0.90;;
30462;SDS011;17256;43.618;25.336;2023-11-21T03:03:46;2.87;;;1.30;;
30462;SDS011;17256;43.618;25.336;2023-11-21T03:06:16;3.80;;;1.63;;
30462;SDS011;17256;43.618;25.336;2023-11-21T03:08:45;3.67;;;1.50;;
30462;SDS011;17256;43.618;25.336;2023-11-21T03:11:11;1.30;;;1.13;;
30462;SDS011;17256;43.618;25.336;2023-11-21T03:13:38;2.20;;;1.60;;
30462;SDS011;17256;43.618;25.336;2023-11-21T03:16:08;3.00;;;1.70;;
30462;SDS011;17256;43.618;25.336;2023-11-21T03:18:37;2.00;;;1.30;;
30462;SDS011;17256;43.618;25.336;2023-11-21T03:21:05;3.17;;;1.60;;
30462;SDS011;17256;43.618;25.336;2023-11-21T03:23:34;3.70;;;2.00;;
30462;SDS011;17256;43.618;25.336;2023-11-21T03:26:02;3.23;;;1.83;;
30462;SDS011;17256;43.618;25.336;2023-11-21T03:28:29;3.73;;;2.63;;
30462;SDS011;17256;43.618;25.336;2023-11-21T03:30:55;3.00;;;2.13;;
30462;SDS011;17256;43.618;25.336;2023-11-21T03:33:21;3.03;;;2.77;;
30462;SDS011;17256;43.618;25.336;2023-11-21T03:35:47;5.17;;;4.10;;
30462;SDS011;17256;43.618;25.336;2023-11-21T03:38:13;4.53;;;4.13;;
30462;SDS011;17256;43.618;25.336;2023-11-21T03:40:38;5.97;;;5.37;;
30462;SDS011;17256;43.618;25.336;2023-11-21T03:43:07;5.83;;;5.07;;
30462;SDS011;17256;43.618;25.336;2023-11-21T03:45:32;4.93;;;4.53;;
30462;SDS011;17256;43.618;25.336;2023-11-21T03:47:58;6.97;;;5.90;;
30462;SDS011;17256;43.618;25.336;2023-11-21T03:50:26;6.30;;;5.70;;
30462;SDS011;17256;43.618;25.336;2023-11-21T03:52:51;7.53;;;6.10;;
30462;SDS011;17256;43.618;25.336;2023-11-21T03:55:17;6.73;;;6.13;;
30462;SDS011;17256;43.618;25.336;2023-11-21T03:57:42;6.60;;;5.93;;
30462;SDS011;17256;43.618;25.336;2023-11-21T04:00:08;6.17;;;5.57;;
30462;SDS011;17256;43.618;25.336;2023-11-21T04:02:38;9.00;;;6.50;;
30462;SDS011;17256;43.618;25.336;2023-11-21T04:05:04;6.27;;;5.50;;
30462;SDS011;17256;43.618;25.336;2023-11-21T04:07:32;7.80;;;6.07;;
30462;SDS011;17256;43.618;25.336;2023-11-21T04:09:57;7.63;;;5.70;;
30462;SDS011;17256;43.618;25.336;2023-11-21T04:12:23;6.77;;;5.47;;
30462;SDS011;17256;43.618;25.336;2023-11-21T04:14:48;9.13;;;7.87;;
30462;SDS011;17256;43.618;25.336;2023-11-21T04:17:17;9.63;;;7.40;;
30462;SDS011;17256;43.618;25.336;2023-11-21T04:19:43;8.73;;;7.83;;
30462;SDS011;17256;43.618;25.336;2023-11-21T04:22:09;8.93;;;7.97;;
30462;SDS011;17256;43.618;25.336;2023-11-21T04:24:34;7.90;;;7.10;;
30462;SDS011;17256;43.618;25.336;2023-11-21T04:27:00;7.50;;;6.23;;
30462;SDS011;17256;43.618;25.336;2023-11-21T04:29:25;7.90;;;5.50;;
30462;SDS011;17256;43.618;25.336;2023-11-21T04:31:51;7.00;;;5.83;;
30462;SDS011;17256;43.618;25.336;2023-11-21T04:34:16;9.80;;;6.17;;
30462;SDS011;17256;43.618;25.336;2023-11-21T04:36:42;6.80;;;6.00;;
30462;SDS011;17256;43.618;25.336;2023-11-21T04:39:08;10.60;;;6.17;;
30462;SDS011;17256;43.618;25.336;2023-11-21T04:41:34;6.60;;;5.57;;
30462;SDS011;17256;43.618;25.336;2023-11-21T04:43:59;4.73;;;4.13;;
30462;SDS011;17256;43.618;25.336;2023-11-21T04:49:51;7.53;;;4.53;;
30462;SDS011;17256;43.618;25.336;2023-11-21T04:52:17;7.40;;;5.83;;
30462;SDS011;17256;43.618;25.336;2023-11-21T04:54:42;8.80;;;6.00;;
30462;SDS011;17256;43.618;25.336;2023-11-21T04:57:08;5.93;;;4.70;;
30462;SDS011;17256;43.618;25.336;2023-11-21T04:59:34;7.63;;;5.10;;
30462;SDS011;17256;43.618;25.336;2023-11-21T05:02:00;9.57;;;6.60;;
30462;SDS011;17256;43.618;25.336;2023-11-21T05:04:25;7.93;;;4.80;;
30462;SDS011;17256;43.618;25.336;2023-11-21T05:07:09;6.90;;;4.50;;
30462;SDS011;17256;43.618;25.336;2023-11-21T05:09:35;5.37;;;3.90;;
30462;SDS011;17256;43.618;25.336;2023-11-21T05:12:01;6.43;;;4.33;;
30462;SDS011;17256;43.618;25.336;2023-11-21T05:14:27;7.50;;;5.40;;
30462;SDS011;17256;43.618;25.336;2023-11-21T05:16:52;6.97;;;3.83;;
30462;SDS011;17256;43.618;25.336;2023-11-21T05:19:18;2.87;;;1.77;;
30462;SDS011;17256;43.618;25.336;2023-11-21T05:21:43;3.87;;;2.93;;
30462;SDS011;17256;43.618;25.336;2023-11-21T05:24:09;4.67;;;3.57;;
30462;SDS011;17256;43.618;25.336;2023-11-21T05:26:35;3.67;;;2.73;;
30462;SDS011;17256;43.618;25.336;2023-11-21T05:29:00;7.70;;;4.70;;
30462;SDS011;17256;43.618;25.336;2023-11-21T05:31:26;13.13;;;8.57;;
30462;SDS011;17256;43.618;25.336;2023-11-21T05:33:52;9.33;;;6.33;;
30462;SDS011;17256;43.618;25.336;2023-11-21T05:36:18;6.50;;;4.47;;
30462;SDS011;17256;43.618;25.336;2023-11-21T05:38:44;7.47;;;5.97;;
30462;SDS011;17256;43.618;25.336;2023-11-21T05:41:09;8.27;;;5.13;;
30462;SDS011;17256;43.618;25.336;2023-11-21T05:43:38;8.70;;;6.10;;
30462;SDS011;17256;43.618;25.336;2023-11-21T05:46:04;5.00;;;3.87;;
30462;SDS011;17256;43.618;25.336;2023-11-21T05:48:32;4.87;;;3.43;;
30462;SDS011;17256;43.618;25.336;2023-11-21T05:50:58;1.80;;;1.67;;
30462;SDS011;17256;43.618;25.336;2023-11-21T05:53:24;6.90;;;3.00;;
30462;SDS011;17256;43.618;25.336;2023-11-21T05:55:50;8.97;;;4.23;;
30462;SDS011;17256;43.618;25.336;2023-11-21T05:58:15;6.53;;;4.27;;
30462;SDS011;17256;43.618;25.336;2023-11-21T06:00:41;5.07;;;4.10;;
30462;SDS011;17256;43.618;25.336;2023-11-21T06:03:06;4.40;;;3.40;;
30462;SDS011;17256;43.618;25.336;2023-11-21T06:05:33;4.17;;;3.73;;
30462;SDS011;17256;43.618;25.336;2023-11-21T06:07:58;7.53;;;3.97;;
30462;SDS011;17256;43.618;25.336;2023-11-21T06:10:24;7.20;;;3.43;;
30462;SDS011;17256;43.618;25.336;2023-11-21T06:12:50;2.93;;;2.53;;
30462;SDS011;17256;43.618;25.336;2023-11-21T06:15:16;5.97;;;2.63;;
30462;SDS011;17256;43.618;25.336;2023-11-21T06:17:44;6.63;;;2.27;;
30462;SDS011;17256;43.618;25.336;2023-11-21T06:20:10;4.77;;;3.00;;
30462;SDS011;17256;43.618;25.336;2023-11-21T06:22:39;11.43;;;8.83;;
30462;SDS011;17256;43.618;25.336;2023-11-21T06:25:06;16.57;;;7.77;;
30462;SDS011;17256;43.618;25.336;2023-11-21T06:27:33;10.40;;;8.87;;
30462;SDS011;17256;43.618;25.336;2023-11-21T06:30:09;18.47;;;12.90;;
30462;SDS011;17256;43.618;25.336;2023-11-21T06:32:36;18.27;;;11.13;;
30462;SDS011;17256;43.618;25.336;2023-11-21T06:35:03;18.77;;;10.07;;
30462;SDS011;17256;43.618;25.336;2023-11-21T06:37:30;16.70;;;12.87;;
30462;SDS011;17256;43.618;25.336;2023-11-21T06:39:57;15.67;;;9.70;;
30462;SDS011;17256;43.618;25.336;2023-11-21T06:42:23;14.07;;;10.23;;
30462;SDS011;17256;43.618;25.336;2023-11-21T06:45:08;11.70;;;8.77;;
30462;SDS011;17256;43.618;25.336;2023-11-21T06:47:35;12.60;;;9.20;;
30462;SDS011;17256;43.618;25.336;2023-11-21T06:50:01;13.60;;;9.60;;
30462;SDS011;17256;43.618;25.336;2023-11-21T06:52:27;16.70;;;10.67;;
30462;SDS011;17256;43.618;25.336;2023-11-21T06:54:52;16.43;;;11.43;;
30462;SDS011;17256;43.618;25.336;2023-11-21T06:57:18;16.50;;;9.83;;
30462;SDS011;17256;43.618;25.336;2023-11-21T06:59:44;17.67;;;12.83;;
30462;SDS011;17256;43.618;25.336;2023-11-21T07:02:09;17.80;;;9.87;;
30462;SDS011;17256;43.618;25.336;2023-11-21T07:04:35;16.83;;;10.83;;
30462;SDS011;17256;43.618;25.336;2023-11-21T07:07:06;17.97;;;12.30;;
30462;SDS011;17256;43.618;25.336;2023-11-21T07:09:34;9.10;;;8.07;;
30462;SDS011;17256;43.618;25.336;2023-11-21T07:12:00;6.13;;;4.40;;
30462;SDS011;17256;43.618;25.336;2023-11-21T07:14:26;5.27;;;3.43;;
30462;SDS011;17256;43.618;25.336;2023-11-21T07:16:52;5.17;;;2.70;;
30462;SDS011;17256;43.618;25.336;2023-11-21T07:19:17;5.47;;;1.90;;
30462;SDS011;17256;43.618;25.336;2023-11-21T07:21:43;2.13;;;1.70;;
30462;SDS011;17256;43.618;25.336;2023-11-21T07:24:09;4.83;;;2.23;;
30462;SDS011;17256;43.618;25.336;2023-11-21T07:26:34;5.97;;;2.00;;
30462;SDS011;17256;43.618;25.336;2023-11-21T07:29:00;2.87;;;2.57;;
30462;SDS011;17256;43.618;25.336;2023-11-21T07:31:27;1.53;;;1.30;;
30462;SDS011;17256;43.618;25.336;2023-11-21T07:33:54;2.30;;;1.60;;
30462;SDS011;17256;43.618;25.336;2023-11-21T07:36:22;5.37;;;3.60;;
30462;SDS011;17256;43.618;25.336;2023-11-21T07:38:48;4.30;;;2.40;;
30462;SDS011;17256;43.618;25.336;2023-11-21T07:41:16;4.33;;;2.77;;
30462;SDS011;17256;43.618;25.336;2023-11-21T07:46:58;3.50;;;1.87;;
30462;SDS011;17256;43.618;25.336;2023-11-21T07:49:24;5.47;;;2.10;;
30462;SDS011;17256;43.618;25.336;2023-11-21T07:51:50;6.20;;;4.17;;
30462;SDS011;17256;43.618;25.336;2023-11-21T07:54:16;5.33;;;3.53;;
30462;SDS011;17256;43.618;25.336;2023-11-21T07:56:41;3.10;;;1.83;;
30462;SDS011;17256;43.618;25.336;2023-11-21T07:59:08;2.20;;;1.60;;
30462;SDS011;17256;43.618;25.336;2023-11-21T08:01:33;2.50;;;1.80;;
30462;SDS011;17256;43.618;25.336;2023-11-21T08:04:04;2.33;;;2.10;;
30462;SDS011;17256;43.618;25.336;2023-11-21T08:06:31;11.37;;;9.23;;
30462;SDS011;17256;43.618;25.336;2023-11-21T08:08:59;15.20;;;7.17;;
30462;SDS011;17256;43.618;25.336;2023-11-21T08:11:25;10.90;;;7.60;;
30462;SDS011;17256;43.618;25.336;2023-11-21T08:13:51;14.87;;;9.23;;
30462;SDS011;17256;43.618;25.336;2023-11-21T08:16:17;103.83;;;56.73;;
30462;SDS011;17256;43.618;25.336;2023-11-21T08:18:42;99.93;;;52.23;;
30462;SDS011;17256;43.618;25.336;2023-11-21T08:21:08;36.30;;;19.10;;
30462;SDS011;17256;43.618;25.336;2023-11-21T08:23:34;31.13;;;14.23;;
30462;SDS011;17256;43.618;25.336;2023-11-21T08:25:59;13.13;;;7.00;;
30462;SDS011;17256;43.618;25.336;2023-11-21T08:28:27;5.77;;;3.27;;
30462;SDS011;17256;43.618;25.336;2023-11-21T08:30:52;5.57;;;3.30;;
30462;SDS011;17256;43.618;25.336;2023-11-21T08:33:19;6.33;;;3.77;;
30462;SDS011;17256;43.618;25.336;2023-11-21T08:35:45;6.47;;;5.13;;
30462;SDS011;17256;43.618;25.336;2023-11-21T08:38:11;13.93;;;8.13;;
30462;SDS011;17256;43.618;25.336;2023-11-21T08:40:37;17.00;;;9.23;;
30462;SDS011;17256;43.618;25.336;2023-11-21T08:43:03;10.93;;;7.17;;
30462;SDS011;17256;43.618;25.336;2023-11-21T08:45:30;10.13;;;7.00;;
30462;SDS011;17256;43.618;25.336;2023-11-21T08:47:56;12.40;;;7.67;;
30462;SDS011;17256;43.618;25.336;2023-11-21T08:50:21;14.43;;;7.73;;
30462;SDS011;17256;43.618;25.336;2023-11-21T08:52:47;13.37;;;8.97;;
30462;SDS011;17256;43.618;25.336;2023-11-21T08:55:14;13.47;;;8.37;;
30462;SDS011;17256;43.618;25.336;2023-11-21T08:57:40;12.77;;;8.53;;
30462;SDS011;17256;43.618;25.336;2023-11-21T09:00:08;9.83;;;6.73;;
30462;SDS011;17256;43.618;25.336;2023-11-21T09:02:36;11.03;;;7.37;;
30462;SDS011;17256;43.618;25.336;2023-11-21T09:05:06;11.73;;;8.77;;
30462;SDS011;17256;43.618;25.336;2023-11-21T09:07:32;12.50;;;9.40;;
30462;SDS011;17256;43.618;25.336;2023-11-21T09:09:58;14.53;;;11.93;;
30462;SDS011;17256;43.618;25.336;2023-11-21T09:12:23;16.00;;;8.53;;
30462;SDS011;17256;43.618;25.336;2023-11-21T09:14:52;13.93;;;9.43;;
30462;SDS011;17256;43.618;25.336;2023-11-21T09:17:17;14.77;;;10.47;;
30462;SDS011;17256;43.618;25.336;2023-11-21T09:19:44;15.83;;;11.00;;
30462;SDS011;17256;43.618;25.336;2023-11-21T09:22:12;15.47;;;10.50;;
30462;SDS011;17256;43.618;25.336;2023-11-21T09:24:37;17.20;;;10.07;;
30462;SDS011;17256;43.618;25.336;2023-11-21T09:27:03;17.10;;;11.27;;
30462;SDS011;17256;43.618;25.336;2023-11-21T09:29:30;21.57;;;11.00;;
30462;SDS011;17256;43.618;25.336;2023-11-21T09:31:57;34.93;;;27.23;;
30462;SDS011;17256;43.618;25.336;2023-11-21T09:34:25;22.70;;;17.03;;
30462;SDS011;17256;43.618;25.336;2023-11-21T09:36:51;8.57;;;4.60;;
30462;SDS011;17256;43.618;25.336;2023-11-21T09:39:17;5.47;;;2.73;;
30462;SDS011;17256;43.618;25.336;2023-11-21T09:44:23;11.93;;;7.77;;
30462;SDS011;17256;43.618;25.336;2023-11-21T09:47:00;23.53;;;15.17;;
30462;SDS011;17256;43.618;25.336;2023-11-21T09:49:27;16.07;;;10.80;;
30462;SDS011;17256;43.618;25.336;2023-11-21T09:51:57;20.13;;;13.40;;
30462;SDS011;17256;43.618;25.336;2023-11-21T09:54:28;21.73;;;15.87;;
30462;SDS011;17256;43.618;25.336;2023-11-21T09:56:57;22.10;;;14.43;;
30462;SDS011;17256;43.618;25.336;2023-11-21T09:59:25;13.60;;;10.23;;
30462;SDS011;17256;43.618;25.336;2023-11-21T10:01:55;11.33;;;7.70;;
30462;SDS011;17256;43.618;25.336;2023-11-21T10:04:23;10.97;;;7.33;;
30462;SDS011;17256;43.618;25.336;2023-11-21T10:09:46;8.27;;;6.77;;
30462;SDS011;17256;43.618;25.336;2023-11-21T10:12:14;8.60;;;7.43;;
30462;SDS011;17256;43.618;25.336;2023-11-21T10:14:41;12.50;;;7.77;;
30462;SDS011;17256;43.618;25.336;2023-11-21T10:17:10;10.27;;;8.13;;
30462;SDS011;17256;43.618;25.336;2023-11-21T10:19:38;10.80;;;7.87;;
30462;SDS011;17256;43.618;25.336;2023-11-21T10:22:04;15.53;;;10.23;;
30462;SDS011;17256;43.618;25.336;2023-11-21T10:24:32;13.33;;;9.57;;
30462;SDS011;17256;43.618;25.336;2023-11-21T10:26:58;9.47;;;7.70;;
30462;SDS011;17256;43.618;25.336;2023-11-21T10:29:25;15.73;;;8.57;;
30462;SDS011;17256;43.618;25.336;2023-11-21T10:31:52;16.43;;;8.20;;
30462;SDS011;17256;43.618;25.336;2023-11-21T10:34:20;9.03;;;8.13;;
30462;SDS011;17256;43.618;25.336;2023-11-21T10:36:47;11.97;;;8.03;;
30462;SDS011;17256;43.618;25.336;2023-11-21T10:39:20;11.80;;;8.30;;
30462;SDS011;17256;43.618;25.336;2023-11-21T10:41:48;10.13;;;6.77;;
30462;SDS011;17256;43.618;25.336;2023-11-21T10:44:15;9.17;;;6.93;;
30462;SDS011;17256;43.618;25.336;2023-11-21T10:49:37;8.63;;;4.50;;
30462;SDS011;17256;43.618;25.336;2023-11-21T10:52:02;7.73;;;4.73;;
30462;SDS011;17256;43.618;25.336;2023-11-21T10:54:29;5.93;;;3.33;;
30462;SDS011;17256;43.618;25.336;2023-11-21T10:57:00;4.43;;;3.03;;
30462;SDS011;17256;43.618;25.336;2023-11-21T10:59:30;3.93;;;3.33;;
30462;SDS011;17256;43.618;25.336;2023-11-21T11:01:59;6.80;;;3.47;;
30462;SDS011;17256;43.618;25.336;2023-11-21T11:04:32;7.13;;;4.17;;
30462;SDS011;17256;43.618;25.336;2023-11-21T11:07:04;6.07;;;3.73;;
30462;SDS011;17256;43.618;25.336;2023-11-21T11:09:34;6.20;;;3.93;;
30462;SDS011;17256;43.618;25.336;2023-11-21T11:12:01;9.23;;;2.77;;
30462;SDS011;17256;43.618;25.336;2023-11-21T11:14:27;4.83;;;3.13;;
30462;SDS011;17256;43.618;25.336;2023-11-21T11:16:54;3.03;;;1.67;;
30462;SDS011;17256;43.618;25.336;2023-11-21T11:19:21;4.43;;;2.13;;
30462;SDS011;17256;43.618;25.336;2023-11-21T11:36:11;8.80;;;5.80;;
30462;SDS011;17256;43.618;25.336;2023-11-21T11:38:47;6.10;;;3.23;;
30462;SDS011;17256;43.618;25.336;2023-11-21T11:41:26;4.33;;;2.70;;
30462;SDS011;17256;43.618;25.336;2023-11-21T11:44:01;5.40;;;2.47;;
30462;SDS011;17256;43.618;25.336;2023-11-21T11:46:44;3.20;;;2.20;;
30462;SDS011;17256;43.618;25.336;2023-11-21T11:55:03;3.63;;;1.77;;
30462;SDS011;17256;43.618;25.336;2023-11-21T11:57:33;6.23;;;2.60;;
30462;SDS011;17256;43.618;25.336;2023-11-21T12:00:11;3.83;;;2.10;;
30462;SDS011;17256;43.618;25.336;2023-11-21T12:02:44;4.40;;;2.57;;
30462;SDS011;17256;43.618;25.336;2023-11-21T12:05:11;3.90;;;2.50;;
30462;SDS011;17256;43.618;25.336;2023-11-21T12:07:48;3.70;;;1.77;;
30462;SDS011;17256;43.618;25.336;2023-11-21T12:10:17;3.20;;;1.57;;
30462;SDS011;17256;43.618;25.336;2023-11-21T12:12:45;5.07;;;2.10;;
30462;SDS011;17256;43.618;25.336;2023-11-21T12:15:15;2.43;;;1.73;;
30462;SDS011;17256;43.618;25.336;2023-11-21T12:17:42;3.33;;;2.00;;
30462;SDS011;17256;43.618;25.336;2023-11-21T12:20:09;2.43;;;1.70;;
30462;SDS011;17256;43.618;25.336;2023-11-21T12:22:46;5.43;;;2.33;;
30462;SDS011;17256;43.618;25.336;2023-11-21T12:25:13;3.03;;;2.37;;
30462;SDS011;17256;43.618;25.336;2023-11-21T12:27:50;3.30;;;2.63;;
30462;SDS011;17256;43.618;25.336;2023-11-21T12:30:24;4.03;;;2.80;;
30462;SDS011;17256;43.618;25.336;2023-11-21T12:32:53;5.80;;;3.17;;
30462;SDS011;17256;43.618;25.336;2023-11-21T12:35:21;5.00;;;3.43;;
30462;SDS011;17256;43.618;25.336;2023-11-21T12:37:49;5.03;;;3.53;;
30462;SDS011;17256;43.618;25.336;2023-11-21T12:43:20;6.00;;;2.40;;
30462;SDS011;17256;43.618;25.336;2023-11-21T12:45:45;2.17;;;1.60;;
30462;SDS011;17256;43.618;25.336;2023-11-21T12:48:11;3.20;;;2.03;;
30462;SDS011;17256;43.618;25.336;2023-11-21T12:50:37;5.23;;;1.93;;
30462;SDS011;17256;43.618;25.336;2023-11-21T12:53:05;25.33;;;12.00;;
30462;SDS011;17256;43.618;25.336;2023-11-21T12:55:34;3.00;;;2.47;;
30462;SDS011;17256;43.618;25.336;2023-11-21T12:58:03;3.03;;;2.33;;
30462;SDS011;17256;43.618;25.336;2023-11-21T13:03:07;3.53;;;2.67;;
30462;SDS011;17256;43.618;25.336;2023-11-21T13:05:34;4.00;;;2.57;;
30462;SDS011;17256;43.618;25.336;2023-11-21T13:08:05;18.80;;;16.90;;
30462;SDS011;17256;43.618;25.336;2023-11-21T13:10:37;11.13;;;8.00;;
30462;SDS011;17256;43.618;25.336;2023-11-21T13:13:07;6.77;;;4.30;;
30462;SDS011;17256;43.618;25.336;2023-11-21T13:15:38;3.97;;;3.13;;
30462;SDS011;17256;43.618;25.336;2023-11-21T13:18:06;6.13;;;4.37;;
30462;SDS011;17256;43.618;25.336;2023-11-21T13:20:32;6.27;;;4.03;;
30462;SDS011;17256;43.618;25.336;2023-11-21T13:22:59;9.47;;;5.93;;
30462;SDS011;17256;43.618;25.336;2023-11-21T13:27:59;49.83;;;25.63;;
30462;SDS011;17256;43.618;25.336;2023-11-21T13:30:28;34.40;;;18.13;;
30462;SDS011;17256;43.618;25.336;2023-11-21T13:33:01;34.20;;;19.20;;
30462;SDS011;17256;43.618;25.336;2023-11-21T13:35:30;29.07;;;13.27;;
30462;SDS011;17256;43.618;25.336;2023-11-21T13:38:02;27.03;;;12.50;;
30462;SDS011;17256;43.618;25.336;2023-11-21T13:40:30;20.97;;;9.30;;
30462;SDS011;17256;43.618;25.336;2023-11-21T13:42:56;14.57;;;7.93;;
30462;SDS011;17256;43.618;25.336;2023-11-21T13:45:25;9.67;;;5.40;;
30462;SDS011;17256;43.618;25.336;2023-11-21T13:47:52;10.70;;;6.03;;
30462;SDS011;17256;43.618;25.336;2023-11-21T13:50:25;12.03;;;7.10;;
30462;SDS011;17256;43.618;25.336;2023-11-21T13:53:01;10.40;;;7.10;;
30462;SDS011;17256;43.618;25.336;2023-11-21T13:55:41;17.93;;;11.93;;
30462;SDS011;17256;43.618;25.336;2023-11-21T13:58:07;23.67;;;12.67;;
30462;SDS011;17256;43.618;25.336;2023-11-21T14:00:37;21.13;;;12.97;;
30462;SDS011;17256;43.618;25.336;2023-11-21T14:03:12;22.67;;;16.43;;
30462;SDS011;17256;43.618;25.336;2023-11-21T14:05:46;21.60;;;13.80;;
30462;SDS011;17256;43.618;25.336;2023-11-21T14:08:19;16.27;;;12.70;;
30462;SDS011;17256;43.618;25.336;2023-11-21T14:10:47;17.90;;;13.73;;
30462;SDS011;17256;43.618;25.336;2023-11-21T14:13:18;23.37;;;16.63;;
30462;SDS011;17256;43.618;25.336;2023-11-21T14:15:48;26.53;;;18.50;;
30462;SDS011;17256;43.618;25.336;2023-11-21T14:18:17;23.47;;;15.90;;
30462;SDS011;17256;43.618;25.336;2023-11-21T14:20:52;21.97;;;14.83;;
30462;SDS011;17256;43.618;25.336;2023-11-21T14:23:18;19.30;;;14.13;;
30462;SDS011;17256;43.618;25.336;2023-11-21T14:25:43;26.37;;;15.43;;
30462;SDS011;17256;43.618;25.336;2023-11-21T14:28:09;32.17;;;18.57;;
30462;SDS011;17256;43.618;25.336;2023-11-21T14:30:37;23.50;;;14.33;;
30462;SDS011;17256;43.618;25.336;2023-11-21T14:33:05;14.60;;;10.33;;
30462;SDS011;17256;43.618;25.336;2023-11-21T14:35:31;13.80;;;9.33;;
30462;SDS011;17256;43.618;25.336;2023-11-21T14:38:00;29.10;;;14.67;;
30462;SDS011;17256;43.618;25.336;2023-11-21T14:40:29;40.50;;;25.80;;
30462;SDS011;17256;43.618;25.336;2023-11-21T14:42:59;30.87;;;18.50;;
30462;SDS011;17256;43.618;25.336;2023-11-21T14:45:25;21.57;;;13.73;;
30462;SDS011;17256;43.618;25.336;2023-11-21T14:47:52;20.73;;;15.10;;
30462;SDS011;17256;43.618;25.336;2023-11-21T14:50:34;45.90;;;26.63;;
30462;SDS011;17256;43.618;25.336;2023-11-21T14:53:19;70.67;;;36.33;;
30462;SDS011;17256;43.618;25.336;2023-11-21T14:56:04;53.80;;;33.60;;
30462;SDS011;17256;43.618;25.336;2023-11-21T14:58:32;45.83;;;30.83;;
30462;SDS011;17256;43.618;25.336;2023-11-21T15:00:58;50.43;;;32.30;;
30462;SDS011;17256;43.618;25.336;2023-11-21T15:03:28;71.97;;;44.83;;
30462;SDS011;17256;43.618;25.336;2023-11-21T15:05:57;53.53;;;36.83;;
30462;SDS011;17256;43.618;25.336;2023-11-21T15:08:43;48.53;;;34.07;;
30462;SDS011;17256;43.618;25.336;2023-11-21T15:11:10;50.10;;;33.53;;
30462;SDS011;17256;43.618;25.336;2023-11-21T15:13:40;33.10;;;21.53;;
30462;SDS011;17256;43.618;25.336;2023-11-21T15:16:07;62.47;;;36.60;;